createdAt,value
2023-04-11T00:01:36.321Z,11.43
2023-04-11T00:04:39.303Z,11.25
2023-04-11T00:07:41.884Z,12.30
2023-04-11T00:10:45.858Z,11.20
2023-04-11T00:13:48.797Z,11.25
2023-04-11T00:16:53.825Z,11.05
2023-04-11T00:19:57.831Z,11.68
2023-04-11T00:23:00.583Z,11.20
2023-04-11T00:26:03.409Z,11.03
2023-04-11T00:29:06.045Z,12.10
2023-04-11T00:32:08.706Z,11.73
2023-04-11T00:35:12.085Z,11.95
2023-04-11T00:38:15.228Z,11.70
2023-04-11T00:41:17.903Z,12.37
2023-04-11T00:44:20.449Z,12.40
2023-04-11T00:47:23.255Z,12.18
2023-04-11T00:50:26.322Z,11.98
2023-04-11T00:53:32.874Z,12.18
2023-04-11T00:56:36.090Z,11.53
2023-04-11T00:59:39.091Z,12.43
2023-04-11T01:02:45.265Z,11.98
2023-04-11T01:05:52.384Z,12.13
2023-04-11T01:08:54.966Z,11.63
2023-04-11T01:11:59.345Z,13.10
2023-04-11T01:15:01.996Z,12.75
2023-04-11T01:18:06.469Z,11.85
2023-04-11T01:21:09.613Z,12.35
2023-04-11T01:24:12.497Z,12.00
2023-04-11T01:27:15.542Z,11.83
2023-04-11T01:30:18.973Z,12.45
2023-04-11T01:33:23.018Z,11.60
2023-04-11T01:36:27.121Z,11.02
2023-04-11T01:39:30.091Z,11.48
2023-04-11T01:42:32.898Z,11.87
2023-04-11T01:45:36.539Z,11.68
2023-04-11T01:48:40.052Z,12.85
2023-04-11T01:51:42.521Z,12.32
2023-04-11T01:54:45.211Z,11.95
2023-04-11T01:57:47.571Z,11.57
2023-04-11T02:00:50.525Z,11.57
2023-04-11T02:03:55.241Z,11.23
2023-04-11T02:06:57.632Z,11.48
2023-04-11T02:10:00.573Z,12.60
2023-04-11T02:13:03.000Z,11.87
2023-04-11T02:16:18.148Z,12.40
2023-04-11T02:19:22.299Z,12.13
2023-04-11T02:22:25.052Z,11.23
2023-04-11T02:25:27.786Z,11.18
2023-04-11T02:28:30.453Z,11.90
2023-04-11T02:31:33.219Z,11.57
2023-04-11T02:34:35.614Z,12.55
2023-04-11T02:37:38.221Z,11.85
2023-04-11T02:40:41.106Z,9.77
2023-04-11T02:43:44.367Z,11.07
2023-04-11T02:46:46.914Z,10.75
2023-04-11T02:49:49.852Z,12.18
2023-04-11T02:52:54.260Z,11.20
2023-04-11T02:55:57.581Z,11.55
2023-04-11T02:58:59.996Z,11.87
2023-04-11T03:02:03.134Z,11.48
2023-04-11T03:05:06.519Z,12.30
2023-04-11T03:08:09.684Z,12.48
2023-04-11T03:11:12.632Z,12.85
2023-04-11T03:14:15.883Z,11.50
2023-04-11T03:17:18.582Z,12.20
2023-04-11T03:20:21.697Z,11.95
2023-04-11T03:23:24.479Z,12.93
2023-04-11T03:26:27.551Z,12.52
2023-04-11T03:29:32.620Z,12.40
2023-04-11T03:32:36.275Z,11.95
2023-04-11T03:35:38.690Z,11.15
2023-04-11T03:38:41.446Z,12.48
2023-04-11T03:41:43.854Z,11.80
2023-04-11T03:44:47.006Z,11.67
2023-04-11T03:47:49.871Z,11.60
2023-04-11T03:50:54.142Z,12.30
2023-04-11T03:53:57.679Z,12.00
2023-04-11T03:57:01.229Z,11.90
2023-04-11T04:00:07.746Z,12.23
2023-04-11T04:03:17.531Z,12.15
2023-04-11T04:06:21.589Z,12.75
2023-04-11T04:09:25.446Z,12.10
2023-04-11T04:12:29.034Z,12.23
2023-04-11T04:15:32.736Z,12.33
2023-04-11T04:18:36.760Z,11.57
2023-04-11T04:21:39.528Z,10.70
2023-04-11T04:24:46.170Z,11.32
2023-04-11T04:27:54.048Z,11.57
2023-04-11T04:30:58.152Z,11.50
2023-04-11T04:34:11.723Z,10.73
2023-04-11T04:37:21.839Z,12.43
2023-04-11T04:40:26.174Z,10.32
2023-04-11T04:43:32.385Z,11.63
2023-04-11T04:46:37.120Z,11.13
2023-04-11T04:49:41.111Z,11.48
2023-04-11T04:52:43.374Z,11.52
2023-04-11T04:55:46.950Z,11.10
2023-04-11T04:58:51.528Z,10.82
2023-04-11T05:02:00.881Z,12.47
2023-04-11T05:05:04.248Z,12.25
2023-04-11T05:08:08.249Z,11.10
2023-04-11T05:11:11.763Z,11.38
2023-04-11T05:14:17.300Z,10.77
2023-04-11T05:17:20.627Z,10.70
2023-04-11T05:20:24.797Z,11.27
2023-04-11T05:23:27.203Z,10.77
2023-04-11T05:26:31.746Z,10.70
2023-04-11T05:29:34.276Z,10.57
2023-04-11T05:32:37.493Z,10.97
2023-04-11T05:35:40.597Z,10.50
2023-04-11T05:38:44.699Z,10.25
2023-04-11T05:41:47.142Z,9.48
2023-04-11T05:44:49.961Z,10.32
2023-04-11T05:47:52.406Z,10.60
2023-04-11T05:50:55.100Z,10.50
2023-04-11T05:53:58.007Z,10.60
2023-04-11T05:57:04.268Z,10.65
2023-04-11T06:00:16.956Z,10.57
2023-04-11T06:03:19.778Z,9.77
2023-04-11T06:06:23.100Z,10.70
2023-04-11T06:09:26.780Z,11.25
2023-04-11T06:12:29.640Z,11.05
2023-04-11T06:15:32.398Z,10.75
2023-04-11T06:18:34.772Z,9.97
2023-04-11T06:21:37.507Z,10.30
2023-04-11T06:24:41.147Z,10.40
2023-04-11T06:27:44.767Z,10.15
2023-04-11T06:30:47.076Z,10.55
2023-04-11T06:33:49.669Z,11.03
2023-04-11T06:36:51.988Z,10.65
2023-04-11T06:39:54.666Z,9.80
2023-04-11T06:42:58.691Z,10.52
2023-04-11T06:46:01.336Z,10.40
2023-04-11T06:49:03.847Z,10.73
2023-04-11T06:52:07.117Z,9.55
2023-04-11T06:55:10.168Z,10.70
2023-04-11T06:58:12.856Z,9.82
2023-04-11T07:01:15.855Z,10.10
2023-04-11T07:04:18.893Z,9.10
2023-04-11T07:07:21.410Z,10.05
2023-04-11T07:10:25.869Z,9.75
2023-04-11T07:13:28.542Z,10.70
2023-04-11T07:16:31.219Z,11.98
2023-04-11T07:19:34.229Z,12.80
2023-04-11T07:22:37.263Z,12.75
2023-04-11T07:25:39.776Z,12.57
2023-04-11T07:28:44.410Z,12.50
2023-04-11T07:31:46.744Z,12.50
2023-04-11T07:34:49.447Z,10.37
2023-04-11T07:37:53.689Z,12.07
2023-04-11T07:40:57.197Z,14.25
2023-04-11T07:43:59.654Z,10.30
2023-04-11T07:47:02.589Z,10.00
2023-04-11T07:50:05.901Z,8.87
2023-04-11T07:53:10.633Z,7.75
2023-04-11T07:56:14.858Z,8.55
2023-04-11T07:59:17.485Z,7.78
2023-04-11T08:02:20.155Z,8.68
2023-04-11T08:05:23.100Z,8.03
2023-04-11T08:08:26.221Z,7.68
2023-04-11T08:11:28.848Z,8.20
2023-04-11T08:14:31.252Z,8.15
2023-04-11T08:17:37.970Z,8.68
2023-04-11T08:20:41.026Z,9.63
2023-04-11T08:23:43.881Z,9.15
2023-04-11T08:26:46.374Z,10.60
2023-04-11T08:29:49.199Z,10.13
2023-04-11T08:32:51.607Z,9.27
2023-04-11T08:35:54.440Z,7.80
2023-04-11T08:38:56.994Z,7.90
2023-04-11T08:42:00.276Z,8.02
2023-04-11T08:45:05.353Z,8.07
2023-04-11T08:48:09.353Z,7.30
2023-04-11T08:51:12.708Z,7.87
2023-04-11T08:54:15.900Z,7.57
2023-04-11T08:57:27.594Z,8.35
2023-04-11T09:00:32.748Z,8.00
2023-04-11T09:03:53.919Z,8.02
2023-04-11T09:07:00.570Z,8.50
2023-04-11T09:10:30.424Z,9.52
2023-04-11T09:13:35.144Z,8.95
2023-04-11T09:16:53.161Z,9.43
2023-04-11T09:19:55.885Z,8.77
2023-04-11T09:23:01.954Z,8.97
2023-04-11T09:26:09.705Z,9.18
2023-04-11T09:29:12.741Z,8.48
2023-04-11T09:32:36.230Z,8.45
2023-04-11T09:35:38.782Z,8.75
2023-04-11T09:38:44.112Z,7.97
2023-04-11T09:41:46.975Z,8.50
2023-04-11T09:44:49.699Z,9.00
2023-04-11T09:47:55.752Z,8.57
2023-04-11T09:50:59.800Z,8.45
2023-04-11T09:54:03.923Z,8.93
2023-04-11T09:57:08.443Z,8.80
2023-04-11T10:00:15.323Z,9.13
2023-04-11T10:03:20.424Z,8.40
2023-04-11T10:07:03.893Z,8.60
2023-04-11T10:10:07.679Z,9.50
2023-04-11T10:13:38.741Z,8.98
2023-04-11T10:17:12.938Z,9.23
2023-04-11T10:20:44.000Z,8.63
2023-04-11T10:24:13.450Z,8.55
2023-04-11T10:27:50.672Z,7.80
2023-04-11T10:31:04.673Z,8.82
2023-04-11T10:34:14.664Z,7.45
2023-04-11T10:37:18.551Z,7.55
2023-04-11T10:40:21.218Z,8.02
2023-04-11T10:43:23.869Z,7.93
2023-04-11T10:46:26.566Z,9.57
2023-04-11T10:49:39.515Z,8.60
2023-04-11T10:52:41.876Z,8.75
2023-04-11T10:55:51.286Z,9.52
2023-04-11T10:58:54.446Z,9.87
2023-04-11T11:02:02.365Z,8.32
2023-04-11T11:05:25.526Z,8.95
2023-04-11T11:08:30.596Z,8.00
2023-04-11T11:11:33.209Z,8.77
2023-04-11T11:14:36.930Z,7.77
2023-04-11T11:17:39.484Z,8.38
2023-04-11T11:20:42.466Z,8.38
2023-04-11T11:23:58.988Z,8.77
2023-04-11T11:27:01.921Z,8.75
2023-04-11T11:30:11.662Z,9.37
2023-04-11T11:33:17.895Z,8.90
2023-04-11T11:36:20.911Z,8.60
2023-04-11T11:39:24.678Z,8.80
2023-04-11T11:42:28.045Z,7.75
2023-04-11T11:45:32.973Z,9.17
2023-04-11T11:48:35.509Z,7.12
2023-04-11T11:51:46.752Z,8.10
2023-04-11T11:54:49.441Z,7.93
2023-04-11T11:57:52.662Z,7.75
2023-04-11T12:00:55.276Z,7.70
2023-04-11T12:03:58.672Z,7.80
2023-04-11T12:07:08.908Z,7.45
2023-04-11T12:10:17.079Z,7.78
2023-04-11T12:13:22.712Z,7.22
2023-04-11T12:16:25.734Z,7.17
2023-04-11T12:19:28.135Z,7.18
2023-04-11T12:22:30.970Z,7.22
2023-04-11T12:25:33.407Z,6.60
2023-04-11T12:28:36.138Z,5.75
2023-04-11T12:31:38.622Z,6.63
2023-04-11T12:34:41.809Z,6.32
2023-04-11T12:37:44.358Z,6.97
2023-04-11T12:40:47.053Z,7.12
2023-04-11T12:43:49.449Z,6.53
2023-04-11T12:46:52.648Z,7.07
2023-04-11T12:49:55.330Z,6.28
2023-04-11T12:52:58.093Z,7.20
2023-04-11T12:56:00.735Z,7.30
2023-04-11T12:59:03.718Z,6.80
2023-04-11T13:02:06.285Z,6.67
2023-04-11T13:05:09.858Z,6.07
2023-04-11T13:08:12.718Z,6.60
2023-04-11T13:11:15.392Z,5.90
2023-04-11T13:14:17.902Z,6.25
2023-04-11T13:17:20.719Z,5.90
2023-04-11T13:20:23.104Z,6.10
2023-04-11T13:23:25.893Z,6.22
2023-04-11T13:26:28.662Z,6.10
2023-04-11T13:29:31.365Z,6.60
2023-04-11T13:32:33.757Z,6.80
2023-04-11T13:35:36.429Z,5.72
2023-04-11T13:38:38.888Z,5.95
2023-04-11T13:41:41.632Z,6.50
2023-04-11T13:44:44.042Z,5.80
2023-04-11T13:47:46.862Z,5.47
2023-04-11T13:50:49.541Z,5.22
2023-04-11T13:53:52.284Z,5.32
2023-04-11T13:56:54.746Z,5.37
2023-04-11T13:59:57.430Z,5.50
2023-04-11T14:02:59.910Z,5.40
2023-04-11T14:06:03.876Z,5.35
2023-04-11T14:09:06.459Z,5.75
2023-04-11T14:12:09.094Z,5.45
2023-04-11T14:15:11.910Z,3.35
2023-04-11T14:18:14.523Z,3.20
2023-04-11T14:21:16.999Z,3.10
2023-04-11T14:24:22.080Z,2.95
2023-04-11T14:27:24.665Z,2.75
2023-04-11T14:30:27.868Z,3.10
2023-04-11T14:33:30.322Z,3.47
2023-04-11T14:36:33.000Z,3.75
2023-04-11T14:39:35.450Z,3.40
2023-04-11T14:42:38.530Z,2.85
2023-04-11T14:45:41.281Z,3.35
2023-04-11T14:48:44.047Z,3.63
2023-04-11T14:51:46.451Z,3.45
2023-04-11T14:54:49.390Z,3.45
2023-04-11T14:57:53.913Z,3.00
2023-04-11T15:00:56.866Z,2.85
2023-04-11T15:03:59.525Z,2.40
2023-04-11T15:07:15.170Z,3.28
2023-04-11T15:10:22.687Z,3.55
2023-04-11T15:13:27.070Z,4.15
2023-04-11T15:16:29.491Z,4.32
2023-04-11T15:19:32.875Z,4.60
2023-04-11T15:22:40.081Z,4.72
2023-04-11T15:25:44.148Z,5.00
2023-04-11T15:28:47.379Z,4.12
2023-04-11T15:31:50.265Z,3.37
2023-04-11T15:34:54.958Z,2.83
2023-04-11T15:38:00.535Z,3.33
2023-04-11T15:41:03.566Z,2.90
2023-04-11T15:44:06.194Z,3.22
2023-04-11T15:47:08.799Z,2.72
2023-04-11T15:50:12.105Z,2.93
2023-04-11T15:53:14.516Z,3.12
2023-04-11T15:56:19.892Z,2.50
2023-04-11T15:59:23.893Z,2.47
2023-04-11T16:02:27.268Z,2.58
2023-04-11T16:05:31.461Z,2.37
2023-04-11T16:08:33.916Z,3.45
2023-04-11T16:11:38.714Z,2.95
2023-04-11T16:14:41.086Z,3.30
2023-04-11T16:17:46.443Z,3.08
2023-04-11T16:20:48.945Z,4.37
2023-04-11T16:23:55.405Z,3.08
2023-04-11T16:26:58.451Z,3.97
2023-04-11T16:30:05.037Z,3.00
2023-04-11T16:33:07.592Z,4.05
2023-04-11T16:36:11.387Z,3.17
2023-04-11T16:39:13.977Z,2.60
2023-04-11T16:42:17.395Z,2.80
2023-04-11T16:45:20.024Z,2.40
2023-04-11T16:48:24.238Z,2.60
2023-04-11T16:51:26.804Z,2.90
2023-04-11T16:54:29.490Z,2.65
2023-04-11T16:57:33.426Z,3.05
2023-04-11T17:00:36.390Z,2.78
2023-04-11T17:03:39.251Z,3.45
2023-04-11T17:06:42.065Z,2.97
2023-04-11T17:09:47.540Z,3.10
2023-04-11T17:12:51.236Z,2.37
2023-04-11T17:15:54.463Z,3.08
2023-04-11T17:18:57.195Z,4.40
2023-04-11T17:21:59.678Z,2.70
2023-04-11T17:25:02.899Z,2.95
2023-04-11T17:28:05.352Z,3.12
2023-04-11T17:31:15.785Z,3.60
2023-04-11T17:34:18.496Z,3.20
2023-04-11T17:37:21.397Z,3.00
2023-04-11T17:40:23.949Z,2.65
2023-04-11T17:43:26.848Z,3.08
2023-04-11T17:46:29.566Z,3.55
2023-04-11T17:49:32.524Z,4.20
2023-04-11T17:52:34.919Z,3.10
2023-04-11T17:55:37.890Z,3.40
2023-04-11T17:58:44.287Z,3.08
2023-04-11T18:01:47.432Z,3.60
2023-04-11T18:04:51.068Z,3.47
2023-04-11T18:07:58.782Z,3.43
2023-04-11T18:11:01.526Z,3.25
2023-04-11T18:14:03.867Z,3.80
2023-04-11T18:17:06.889Z,3.50
2023-04-11T18:20:13.018Z,4.32
2023-04-11T18:23:15.786Z,4.00
2023-04-11T18:26:18.253Z,4.85
2023-04-11T18:29:21.006Z,5.00
2023-04-11T18:32:26.776Z,4.93
2023-04-11T18:35:31.803Z,5.00
2023-04-11T18:38:34.308Z,5.37
2023-04-11T18:41:37.329Z,5.82
2023-04-11T18:44:39.839Z,5.70
2023-04-11T18:47:42.891Z,5.60
2023-04-11T18:50:48.634Z,5.12
2023-04-11T18:53:52.706Z,5.70
2023-04-11T18:56:56.396Z,5.35
2023-04-11T19:00:05.052Z,5.25
2023-04-11T19:03:15.290Z,5.57
2023-04-11T19:06:18.345Z,5.70
2023-04-11T19:09:21.583Z,5.47
2023-04-11T19:12:24.809Z,5.72
2023-04-11T19:15:27.153Z,5.43
2023-04-11T19:18:29.796Z,5.32
2023-04-11T19:21:32.212Z,5.32
2023-04-11T19:24:35.003Z,5.03
2023-04-11T19:27:41.388Z,5.53
2023-04-11T19:30:44.360Z,4.90
2023-04-11T19:33:46.860Z,5.07
2023-04-11T19:36:49.677Z,4.45
2023-04-11T19:39:52.067Z,4.60
2023-04-11T19:42:54.770Z,4.07
2023-04-11T19:45:57.162Z,3.72
2023-04-11T19:49:00.470Z,3.58
2023-04-11T19:52:02.847Z,3.95
2023-04-11T19:55:06.308Z,4.00
2023-04-11T19:58:08.918Z,3.72
2023-04-11T20:01:11.820Z,3.60
2023-04-11T20:04:16.175Z,3.80
2023-04-11T20:07:18.777Z,3.67
2023-04-11T20:10:22.116Z,3.60
2023-04-11T20:13:24.578Z,3.45
2023-04-11T20:16:28.841Z,4.03
2023-04-11T20:19:32.798Z,3.37
2023-04-11T20:22:38.294Z,3.35
2023-04-11T20:25:41.154Z,3.33
2023-04-11T20:28:44.378Z,3.95
2023-04-11T20:31:47.061Z,3.90
2023-04-11T20:34:49.835Z,3.22
2023-04-11T20:37:54.151Z,2.95
2023-04-11T20:40:57.141Z,2.40
2023-04-11T20:43:59.822Z,2.10
2023-04-11T20:47:02.587Z,2.35
2023-04-11T20:50:10.483Z,2.22
2023-04-11T20:53:13.561Z,1.67
2023-04-11T20:56:15.956Z,1.70
2023-04-11T20:59:18.632Z,1.50
2023-04-11T21:02:21.348Z,1.42
2023-04-11T21:05:25.098Z,1.62
2023-04-11T21:08:27.791Z,1.50
2023-04-11T21:11:30.560Z,2.07
2023-04-11T21:14:33.260Z,1.67
2023-04-11T21:17:36.494Z,1.30
2023-04-11T21:20:41.913Z,1.33
2023-04-11T21:23:44.693Z,1.30
2023-04-11T21:26:47.379Z,1.70
2023-04-11T21:29:50.092Z,1.33
2023-04-11T21:32:52.620Z,1.12
2023-04-11T21:35:55.709Z,1.30
2023-04-11T21:38:58.177Z,1.27
2023-04-11T21:42:01.615Z,1.50
2023-04-11T21:45:04.248Z,1.23
2023-04-11T21:48:07.005Z,1.42
2023-04-11T21:51:10.096Z,1.40
2023-04-11T21:54:12.722Z,1.20
2023-04-11T21:57:15.411Z,1.37
2023-04-11T22:00:20.885Z,1.20
2023-04-11T22:03:24.133Z,1.05
2023-04-11T22:06:30.359Z,1.10
2023-04-11T22:09:33.242Z,1.08
2023-04-11T22:12:36.608Z,1.40
2023-04-11T22:15:40.069Z,1.50
2023-04-11T22:18:49.092Z,1.45
2023-04-11T22:21:55.829Z,1.62
2023-04-11T22:24:59.285Z,1.50
2023-04-11T22:28:02.266Z,1.50
2023-04-11T22:31:05.363Z,2.03
2023-04-11T22:34:09.440Z,1.70
2023-04-11T22:37:11.767Z,1.77
2023-04-11T22:40:19.088Z,1.60
2023-04-11T22:43:22.519Z,1.60
2023-04-11T22:46:25.664Z,1.50
2023-04-11T22:49:28.017Z,1.62
2023-04-11T22:52:30.727Z,1.67
2023-04-11T22:55:34.385Z,2.05
2023-04-11T22:58:37.845Z,1.50
2023-04-11T23:01:40.264Z,1.90
2023-04-11T23:04:42.957Z,1.80
2023-04-11T23:07:45.443Z,1.73
2023-04-11T23:10:48.078Z,1.70
2023-04-11T23:13:52.696Z,1.50
2023-04-11T23:16:55.337Z,1.37
2023-04-11T23:19:59.391Z,1.73
2023-04-11T23:23:02.215Z,1.40
2023-04-11T23:26:05.119Z,1.70
2023-04-11T23:29:08.662Z,2.10
2023-04-11T23:32:10.992Z,1.90
2023-04-11T23:35:16.825Z,1.70
2023-04-11T23:38:19.788Z,2.00
2023-04-11T23:41:22.449Z,1.70
2023-04-11T23:44:24.864Z,1.57
2023-04-11T23:47:27.782Z,1.37
2023-04-11T23:50:30.180Z,1.65
2023-04-11T23:53:32.901Z,2.08
2023-04-11T23:56:35.250Z,1.98
2023-04-11T23:59:37.947Z,2.20
